createdAt,value
2023-01-11T00:00:21.997Z,100.00
2023-01-11T00:05:45.694Z,100.00
2023-01-11T00:10:48.684Z,100.00
2023-01-11T00:15:51.996Z,100.00
2023-01-11T00:20:55.200Z,100.00
2023-01-11T00:25:58.306Z,100.00
2023-01-11T00:31:02.202Z,100.00
2023-01-11T00:36:05.547Z,100.00
2023-01-11T00:41:27.695Z,100.00
2023-01-11T00:46:49.434Z,100.00
2023-01-11T00:51:52.554Z,100.00
2023-01-11T00:56:55.953Z,100.00
2023-01-11T01:01:59.162Z,100.00
2023-01-11T01:07:02.497Z,100.00
2023-01-11T01:12:07.185Z,100.00
2023-01-11T01:17:10.325Z,100.00
2023-01-11T01:22:13.748Z,100.00
2023-01-11T01:27:18.173Z,100.00
2023-01-11T01:32:21.277Z,100.00
2023-01-11T01:37:24.490Z,100.00
2023-01-11T01:42:28.001Z,100.00
2023-01-11T01:47:53.737Z,100.00
2023-01-11T01:53:00.834Z,100.00
2023-01-11T01:58:09.474Z,100.00
2023-01-11T02:03:16.879Z,100.00
2023-01-11T02:08:24.383Z,100.00
2023-01-11T02:13:27.900Z,100.00
2023-01-11T02:18:30.910Z,100.00
2023-01-11T02:23:33.955Z,100.00
2023-01-11T02:28:37.012Z,100.00
2023-01-11T02:33:47.699Z,100.00
2023-01-11T02:38:53.889Z,100.00
2023-01-11T02:44:45.376Z,100.00
2023-01-11T02:49:56.405Z,100.00
2023-01-11T02:55:01.104Z,100.00
2023-01-11T03:00:05.686Z,100.00
2023-01-11T03:05:12.959Z,100.00
2023-01-11T03:10:15.998Z,100.00
2023-01-11T03:15:22.171Z,100.00
2023-01-11T03:20:31.465Z,100.00
2023-01-11T03:25:37.597Z,100.00
2023-01-11T03:30:48.077Z,100.00
2023-01-11T03:35:53.961Z,100.00
2023-01-11T03:41:09.545Z,100.00
2023-01-11T03:46:18.475Z,100.00
2023-01-11T03:51:25.332Z,100.00
2023-01-11T03:56:55.013Z,100.00
2023-01-11T04:01:59.656Z,100.00
2023-01-11T04:07:02.658Z,100.00
2023-01-11T04:12:06.176Z,100.00
2023-01-11T04:17:09.076Z,100.00
2023-01-11T04:22:12.279Z,100.00
2023-01-11T04:27:15.259Z,100.00
2023-01-11T04:32:18.600Z,100.00
2023-01-11T04:37:21.704Z,100.00
2023-01-11T04:42:26.032Z,100.00
2023-01-11T04:47:29.135Z,100.00
2023-01-11T04:52:32.347Z,100.00
2023-01-11T04:57:35.765Z,100.00
2023-01-11T05:02:40.006Z,100.00
2023-01-11T05:07:42.919Z,100.00
2023-01-11T05:12:47.225Z,100.00
2023-01-11T05:17:50.332Z,100.00
2023-01-11T05:22:53.333Z,100.00
2023-01-11T05:27:56.539Z,100.00
2023-01-11T05:32:59.654Z,100.00
2023-01-11T05:38:02.749Z,100.00
2023-01-11T05:43:06.265Z,100.00
2023-01-11T05:48:09.581Z,100.00
2023-01-11T05:53:12.578Z,100.00
2023-01-11T05:58:16.096Z,100.00
2023-01-11T06:03:19.471Z,100.00
2023-01-11T06:08:22.612Z,100.00
2023-01-11T06:13:28.795Z,100.00
2023-01-11T06:18:41.626Z,100.00
2023-01-11T06:23:45.959Z,100.00
2023-01-11T06:28:49.473Z,100.00
2023-01-11T06:33:52.375Z,100.00
2023-01-11T06:38:55.441Z,100.00
2023-01-11T06:43:58.890Z,100.00
2023-01-11T06:49:02.407Z,100.00
2023-01-11T06:54:05.427Z,100.00
2023-01-11T06:59:08.928Z,100.00
2023-01-11T07:04:13.517Z,100.00
2023-01-11T07:09:16.476Z,100.00
2023-01-11T07:14:21.322Z,100.00
2023-01-11T07:19:24.417Z,100.00
2023-01-11T07:24:27.527Z,100.00
2023-01-11T07:29:30.934Z,100.00
2023-01-11T07:34:35.028Z,100.00
2023-01-11T07:39:43.353Z,100.00
2023-01-11T07:44:47.112Z,100.00
2023-01-11T07:49:50.227Z,100.00
2023-01-11T07:54:53.483Z,100.00
2023-01-11T07:59:57.247Z,100.00
2023-01-11T08:05:02.936Z,100.00
2023-01-11T08:10:07.454Z,100.00
2023-01-11T08:15:14.757Z,100.00
2023-01-11T08:20:18.067Z,100.00
2023-01-11T08:25:22.097Z,100.00
2023-01-11T08:30:25.206Z,99.83
2023-01-11T08:35:28.918Z,95.34
2023-01-11T08:40:31.931Z,85.98
2023-01-11T08:45:35.132Z,82.73
2023-01-11T08:50:38.441Z,83.84
2023-01-11T08:55:43.600Z,83.17
2023-01-11T09:00:48.489Z,83.63
2023-01-11T09:05:51.750Z,84.56
2023-01-11T09:10:57.206Z,85.77
2023-01-11T09:16:00.490Z,84.38
2023-01-11T09:21:03.661Z,82.76
2023-01-11T09:26:06.797Z,80.93
2023-01-11T09:31:10.315Z,77.22
2023-01-11T09:36:15.240Z,71.88
2023-01-11T09:41:27.666Z,72.00
2023-01-11T09:46:32.309Z,72.81
2023-01-11T09:51:36.386Z,71.62
2023-01-11T09:56:46.605Z,74.19
2023-01-11T10:02:10.449Z,78.99
2023-01-11T10:07:17.345Z,82.06
2023-01-11T10:18:38.957Z,84.81
2023-01-11T10:23:42.049Z,85.41
2023-01-11T10:29:00.904Z,86.15
2023-01-11T10:34:22.744Z,88.00
2023-01-11T10:39:51.585Z,88.07
2023-01-11T10:45:00.641Z,88.21
2023-01-11T10:50:12.711Z,88.98
2023-01-11T10:55:19.305Z,91.94
2023-01-11T11:00:33.802Z,91.97
2023-01-11T11:05:43.124Z,92.14
2023-01-11T11:10:52.690Z,92.57
2023-01-11T11:16:15.318Z,92.36
2023-01-11T11:21:23.263Z,93.11
2023-01-11T11:26:30.262Z,94.05
2023-01-11T11:31:35.331Z,94.67
2023-01-11T11:36:46.104Z,95.45
2023-01-11T11:41:51.162Z,96.08
2023-01-11T11:47:05.077Z,96.54
2023-01-11T11:52:13.023Z,96.50
2023-01-11T11:57:21.170Z,96.98
2023-01-11T12:02:26.787Z,97.07
2023-01-11T12:07:46.278Z,97.36
2023-01-11T12:13:02.122Z,96.81
2023-01-11T12:18:26.308Z,97.93
2023-01-11T12:23:29.919Z,97.92
2023-01-11T12:28:43.572Z,97.94
2023-01-11T12:34:05.934Z,97.91
2023-01-11T12:39:11.846Z,98.64
2023-01-11T12:44:37.841Z,98.65
2023-01-11T12:49:55.679Z,98.94
2023-01-11T12:55:31.671Z,98.76
2023-01-11T13:00:40.917Z,98.59
2023-01-11T13:05:49.843Z,97.47
2023-01-11T13:10:56.147Z,96.84
2023-01-11T13:16:03.757Z,96.46
2023-01-11T13:21:26.416Z,94.43
2023-01-11T13:26:32.799Z,93.70
2023-01-11T13:31:36.559Z,92.91
2023-01-11T13:36:43.416Z,92.78
2023-01-11T13:41:48.728Z,92.54
2023-01-11T13:47:12.252Z,92.48
2023-01-11T13:52:17.104Z,92.62
2023-01-11T13:57:23.890Z,92.75
2023-01-11T14:02:33.659Z,93.13
2023-01-11T14:08:01.011Z,92.68
2023-01-11T14:13:08.025Z,92.65
2023-01-11T14:18:26.898Z,93.02
2023-01-11T14:23:45.265Z,93.61
2023-01-11T14:28:57.751Z,94.18
2023-01-11T14:34:00.911Z,94.53
2023-01-11T14:39:18.849Z,94.83
2023-01-11T14:44:30.036Z,95.38
2023-01-11T14:49:38.977Z,96.02
2023-01-11T14:54:47.826Z,96.44
2023-01-11T14:59:51.332Z,96.76
2023-01-11T15:04:57.526Z,97.06
2023-01-11T15:10:05.464Z,97.49
2023-01-11T15:15:14.862Z,97.83
2023-01-11T15:20:19.685Z,98.19
2023-01-11T15:25:25.050Z,98.40
2023-01-11T15:30:34.859Z,98.61
2023-01-11T15:35:38.262Z,98.85
2023-01-11T15:40:43.058Z,98.92
2023-01-11T15:46:05.379Z,99.14
2023-01-11T15:51:08.572Z,99.32
2023-01-11T15:56:31.769Z,99.13
2023-01-11T16:01:54.964Z,98.75
2023-01-11T16:07:09.293Z,98.99
2023-01-11T16:12:31.344Z,98.85
2023-01-11T16:17:35.268Z,98.94
2023-01-11T16:22:39.193Z,99.20
2023-01-11T16:27:43.324Z,99.33
2023-01-11T16:32:46.943Z,99.49
2023-01-11T16:37:57.009Z,99.61
2023-01-11T16:43:08.210Z,99.82
2023-01-11T16:48:18.379Z,99.82
2023-01-11T16:53:21.591Z,99.93
2023-01-11T16:58:29.399Z,99.82
2023-01-11T17:03:33.579Z,99.63
2023-01-11T17:08:38.385Z,99.49
2023-01-11T17:13:53.671Z,99.18
2023-01-11T17:18:59.023Z,99.17
2023-01-11T17:24:04.079Z,99.29
2023-01-11T17:29:08.204Z,99.17
2023-01-11T17:34:19.297Z,99.24
2023-01-11T17:39:32.674Z,99.65
2023-01-11T17:44:54.591Z,99.96
2023-01-11T17:49:59.648Z,100.00
2023-01-11T17:55:13.196Z,100.00
2023-01-11T18:00:20.238Z,100.00
2023-01-11T18:05:26.572Z,100.00
2023-01-11T18:10:34.470Z,100.00
2023-01-11T18:15:37.971Z,100.00
2023-01-11T18:20:43.159Z,100.00
2023-01-11T18:25:47.395Z,100.00
2023-01-11T18:30:58.460Z,100.00
2023-01-11T18:36:03.946Z,100.00
2023-01-11T18:41:27.016Z,100.00
2023-01-11T18:46:30.391Z,100.00
2023-01-11T18:51:36.206Z,100.00
2023-01-11T18:56:39.309Z,100.00
2023-01-11T19:01:56.595Z,100.00
2023-01-11T19:07:08.481Z,100.00
2023-01-11T19:12:13.813Z,100.00
2023-01-11T19:17:18.465Z,100.00
2023-01-11T19:22:24.613Z,100.00
2023-01-11T19:27:30.203Z,100.00
2023-01-11T19:32:34.431Z,100.00
2023-01-11T19:37:38.655Z,100.00
2023-01-11T19:42:42.018Z,100.00
2023-01-11T19:47:47.434Z,100.00
2023-01-11T19:52:50.637Z,100.00
2023-01-11T19:57:54.151Z,100.00
2023-01-11T20:02:57.532Z,100.00
2023-01-11T20:08:00.599Z,100.00
2023-01-11T20:13:05.024Z,100.00
2023-01-11T20:18:08.527Z,100.00
2023-01-11T20:23:12.426Z,100.00
2023-01-11T20:28:16.065Z,100.00
2023-01-11T20:33:20.193Z,100.00
2023-01-11T20:38:23.512Z,100.00
2023-01-11T20:43:28.045Z,100.00
2023-01-11T20:48:32.795Z,100.00
2023-01-11T20:53:36.202Z,100.00
2023-01-11T20:58:40.024Z,100.00
2023-01-11T21:03:43.338Z,100.00
2023-01-11T21:08:47.278Z,100.00
2023-01-11T21:13:54.154Z,100.00
2023-01-11T21:19:00.641Z,100.00
2023-01-11T21:24:04.724Z,100.00
2023-01-11T21:29:08.795Z,100.00
2023-01-11T21:34:13.451Z,100.00
2023-01-11T21:39:17.370Z,100.00
2023-01-11T21:44:21.003Z,100.00
2023-01-11T21:49:24.798Z,100.00
2023-01-11T21:54:28.014Z,100.00
2023-01-11T21:59:33.773Z,100.00
2023-01-11T22:04:37.502Z,100.00
2023-01-11T22:09:49.825Z,100.00
2023-01-11T22:15:05.121Z,100.00
2023-01-11T22:20:09.091Z,100.00
2023-01-11T22:25:12.722Z,100.00
2023-01-11T22:30:16.271Z,100.00
2023-01-11T22:35:20.193Z,100.00
2023-01-11T22:40:23.714Z,100.00
2023-01-11T22:45:26.836Z,100.00
2023-01-11T22:50:29.922Z,100.00
2023-01-11T22:55:34.257Z,100.00
2023-01-11T23:00:37.469Z,100.00
2023-01-11T23:05:44.360Z,100.00
2023-01-11T23:10:47.316Z,100.00
2023-01-11T23:15:53.843Z,100.00
2023-01-11T23:21:02.174Z,100.00
2023-01-11T23:26:07.303Z,100.00
2023-01-11T23:31:20.195Z,100.00
2023-01-11T23:36:26.649Z,100.00
2023-01-11T23:41:48.592Z,100.00
2023-01-11T23:47:10.135Z,100.00
2023-01-11T23:52:13.243Z,100.00
2023-01-11T23:57:17.061Z,100.00
